Time;durP1;ratioP1;P1;durP2;ratioP2;P2;SDS_P1;SDS_P2;PMS_P1;PMS_P2;Temp;Humidity;BMP_temperature;BMP_pressure;BME280_temperature;BME280_humidity;BME280_pressure;Samples;Min_cycle;Max_cycle;Signal;HPM_P1;HPM_P2
2022/05/07 00:02:16;;;;;;;11.57;8.08;;;;;;;7.47;57.20;101608.47;1640216;85;21077;-80
2022/05/07 00:04:43;;;;;;;11.30;6.78;;;;;;;7.45;57.25;101609.30;1639646;87;20975;-80
2022/05/07 00:07:09;;;;;;;9.50;6.92;;;;;;;7.44;57.24;101608.85;1638920;85;21019;-79
2022/05/07 00:09:37;;;;;;;10.80;6.37;;;;;;;7.39;57.30;101601.07;1644366;86;21508;-78
2022/05/07 00:12:04;;;;;;;7.90;6.63;;;;;;;7.37;57.29;101600.61;1640108;86;20907;-80
2022/05/07 00:14:30;;;;;;;8.28;6.83;;;;;;;7.31;57.39;101598.82;1644945;85;20873;-80
2022/05/07 00:19:43;;;;;;;9.03;7.28;;;;;;;7.23;57.54;101594.89;1635540;86;21519;-79
2022/05/07 00:22:09;;;;;;;9.60;7.13;;;;;;;7.21;57.57;101595.30;1657079;86;20888;-79
2022/05/07 00:24:35;;;;;;;8.83;7.27;;;;;;;7.20;57.66;101606.42;1647101;85;21276;-79
2022/05/07 00:27:02;;;;;;;17.37;8.47;;;;;;;7.15;57.63;101605.50;1657247;85;21055;-79
2022/05/07 00:29:28;;;;;;;11.43;8.75;;;;;;;7.15;57.79;101609.36;1645711;85;21011;-80
2022/05/07 00:31:55;;;;;;;12.33;9.18;;;;;;;7.14;57.81;101606.34;1618391;87;21479;-80
2022/05/07 00:34:22;;;;;;;12.53;8.93;;;;;;;7.11;57.84;101602.44;1631723;86;21063;-80
2022/05/07 00:36:48;;;;;;;10.78;8.30;;;;;;;7.08;57.88;101602.81;1640704;86;21114;-80
2022/05/07 00:39:13;;;;;;;9.70;8.50;;;;;;;7.04;57.92;101600.63;1631847;86;21762;-80
2022/05/07 00:41:40;;;;;;;12.00;7.90;;;;;;;7.01;58.02;101608.72;1634094;86;21453;-79
2022/05/07 00:44:06;;;;;;;11.63;9.33;;;;;;;7.01;58.13;101603.57;1651174;85;21336;-78
2022/05/07 00:46:32;;;;;;;11.00;8.47;;;;;;;7.00;58.14;101600.55;1651925;85;21967;-79
2022/05/07 00:48:59;;;;;;;10.55;9.25;;;;;;;7.02;58.16;101606.16;1636826;87;21062;-79
2022/05/07 00:51:35;;;;;;;14.50;8.33;;;;;;;7.01;58.16;101597.14;1633460;86;21118;-79
2022/05/07 00:54:05;;;;;;;10.15;8.10;;;;;;;7.00;58.25;101600.14;1653906;86;21050;-78
2022/05/07 00:56:32;;;;;;;11.38;8.20;;;;;;;6.97;58.23;101602.66;1635416;85;21618;-83
2022/05/07 00:59:00;;;;;;;11.03;8.35;;;;;;;6.94;58.25;101591.05;1631848;86;21518;-79
2022/05/07 01:01:27;;;;;;;9.60;7.65;;;;;;;6.88;58.28;101586.68;1645801;86;21845;-79
2022/05/07 01:03:54;;;;;;;11.60;8.55;;;;;;;6.82;58.35;101584.02;1650128;85;21534;-80
2022/05/07 01:06:21;;;;;;;11.22;8.70;;;;;;;6.80;58.50;101590.84;1632138;86;21054;-81
2022/05/07 01:08:48;;;;;;;;;;;;;;;6.79;58.48;101584.39;1636174;86;21003;-80
2022/05/07 01:11:16;;;;;;;11.73;8.10;;;;;;;6.76;58.98;101581.36;1644094;86;20492;-79
2022/05/07 01:13:53;;;;;;;8.88;7.78;;;;;;;6.75;58.54;101584.80;1619158;87;21435;-78
2022/05/07 01:16:19;;;;;;;9.28;7.85;;;;;;;6.71;58.54;101585.59;1642777;86;20970;-79
2022/05/07 01:18:45;;;;;;;13.65;7.97;;;;;;;6.68;58.59;101584.68;1636885;86;21047;-79
2022/05/07 01:21:14;;;;;;;;;;;;;;;6.61;58.65;101586.29;1633646;86;21531;-80
2022/05/07 01:23:42;;;;;;;9.70;7.37;;;;;;;6.56;59.11;101585.34;1632256;86;20386;-80
2022/05/07 01:26:08;;;;;;;11.53;8.80;;;;;;;6.57;58.87;101590.52;1641639;85;21132;-81
2022/05/07 01:28:34;;;;;;;12.90;9.18;;;;;;;6.56;58.85;101577.22;1634764;86;21559;-81
2022/05/07 01:31:00;;;;;;;14.40;8.73;;;;;;;6.55;58.89;101578.06;1657529;85;21502;-79
2022/05/07 01:33:26;;;;;;;10.18;8.25;;;;;;;6.53;58.91;101579.74;1653250;86;20995;-80
2022/05/07 01:35:52;;;;;;;8.83;7.00;;;;;;;6.50;58.93;101580.98;1639111;86;20963;-80
2022/05/07 01:38:18;;;;;;;12.27;9.07;;;;;;;6.46;58.91;101584.75;1630883;86;21763;-79
2022/05/07 01:40:44;;;;;;;13.07;9.33;;;;;;;6.43;59.04;101583.42;1650933;86;20947;-77
2022/05/07 01:43:10;;;;;;;10.03;8.63;;;;;;;6.43;59.06;101580.43;1630972;86;20999;-80
2022/05/07 01:45:36;;;;;;;10.13;8.45;;;;;;;6.40;59.03;101583.37;1634651;86;21522;-80
2022/05/07 01:48:13;;;;;;;11.93;8.37;;;;;;;6.35;59.08;101585.00;1656909;85;21626;-80
2022/05/07 01:50:42;;;;;;;10.38;8.95;;;;;;;6.34;59.16;101586.70;1631750;85;21514;-80
2022/05/07 01:53:12;;;;;;;16.00;8.73;;;;;;;6.29;59.17;101589.19;1631066;87;21063;-80
2022/05/07 01:55:38;;;;;;;12.73;9.58;;;;;;;6.27;59.29;101581.02;1630801;86;21602;-80
2022/05/07 01:58:05;;;;;;;12.58;8.83;;;;;;;6.27;59.34;101586.15;1635567;85;21681;-79
2022/05/07 02:00:33;;;;;;;14.07;9.65;;;;;;;6.27;59.43;101580.59;1649921;85;21007;-80
2022/05/07 02:03:00;;;;;;;12.20;8.83;;;;;;;6.26;59.37;101581.85;1651335;86;20897;-80
2022/05/07 02:05:28;;;;;;;11.03;9.20;;;;;;;6.22;59.42;101578.81;1648028;86;21448;-80
2022/05/07 02:07:55;;;;;;;13.75;8.98;;;;;;;6.20;59.53;101579.20;1658176;85;21646;-80
2022/05/07 02:10:22;;;;;;;12.63;8.65;;;;;;;6.19;59.52;101574.91;1648237;85;20987;-79
2022/05/07 02:12:49;;;;;;;12.23;9.48;;;;;;;6.19;59.60;101571.06;1634677;85;21372;-79
2022/05/07 02:15:16;;;;;;;15.48;9.78;;;;;;;6.19;59.66;101571.06;1631059;86;21169;-80
2022/05/07 02:17:42;;;;;;;15.08;9.78;;;;;;;6.17;59.65;101567.18;1653236;86;21595;-80
2022/05/07 02:20:08;;;;;;;12.60;9.63;;;;;;;6.16;59.67;101572.28;1638596;86;21566;-80
2022/05/07 02:22:35;;;;;;;;;;;;;;;6.16;59.73;101564.16;1633816;87;21054;-82
2022/05/07 02:25:03;;;;;;;13.65;8.55;;;;;;;6.13;60.10;101560.68;1640940;86;20493;-80
2022/05/07 02:27:29;;;;;;;12.85;8.90;;;;;;;6.06;59.74;101563.56;1633992;86;21582;-81
2022/05/07 02:29:56;;;;;;;12.68;8.35;;;;;;;6.05;59.76;101563.11;1640701;85;21443;-80
2022/05/07 02:32:22;;;;;;;10.90;8.38;;;;;;;6.02;59.75;101561.77;1631450;86;21082;-81
2022/05/07 02:34:48;;;;;;;10.07;8.47;;;;;;;6.00;59.82;101569.00;1631212;86;21122;-79
2022/05/07 02:37:14;;;;;;;9.60;7.30;;;;;;;5.92;60.05;101550.47;1631106;87;21535;-79
2022/05/07 02:39:40;;;;;;;12.47;8.97;;;;;;;5.99;59.98;101560.44;1630979;86;21134;-79
2022/05/07 02:44:51;;;;;;;15.10;8.33;;;;;;;5.97;60.03;101563.39;1656450;86;21344;-79
2022/05/07 02:47:17;;;;;;;11.10;8.58;;;;;;;5.96;60.16;101557.81;1657568;86;21029;-79
2022/05/07 02:49:43;;;;;;;10.08;8.28;;;;;;;6.00;60.21;101559.59;1652600;86;21103;-78
2022/05/07 02:52:09;;;;;;;12.50;8.60;;;;;;;6.00;60.23;101557.45;1647200;85;21032;-79
2022/05/07 02:54:35;;;;;;;9.88;7.50;;;;;;;6.01;60.32;101563.89;1642319;85;21111;-78
2022/05/07 02:57:02;;;;;;;10.58;8.70;;;;;;;6.06;60.50;101564.84;1630857;86;21022;-79
2022/05/07 02:59:29;;;;;;;7.65;6.80;;;;;;;6.11;60.44;101564.50;1631348;86;21070;-80
2022/05/07 03:01:56;;;;;;;10.63;7.28;;;;;;;6.12;60.46;101562.38;1631321;86;21110;-80
2022/05/07 03:04:22;;;;;;;10.63;8.00;;;;;;;6.14;60.54;101561.12;1631476;87;20967;-79
2022/05/07 03:06:48;;;;;;;9.87;8.03;;;;;;;6.13;60.57;101564.11;1622371;86;20932;-79
2022/05/07 03:09:14;;;;;;;9.48;7.50;;;;;;;6.09;60.66;101564.03;1639854;85;21031;-78
2022/05/07 03:11:40;;;;;;;11.27;9.03;;;;;;;6.15;60.74;101562.85;1657605;85;21071;-78
2022/05/07 03:14:06;;;;;;;13.37;9.13;;;;;;;6.11;61.01;101546.53;1657326;85;21497;-79
2022/05/07 03:16:38;;;;;;;8.53;7.53;;;;;;;6.19;60.80;101562.07;1640396;85;21726;-79
2022/05/07 03:19:07;;;;;;;16.45;8.75;;;;;;;6.17;60.73;101562.46;1657671;86;21101;-80
2022/05/07 03:21:34;;;;;;;10.03;8.08;;;;;;;6.15;60.78;101562.85;1633506;86;21161;-78
2022/05/07 03:24:01;;;;;;;8.23;7.40;;;;;;;6.14;60.83;101560.70;1618005;87;21448;-80
2022/05/07 03:26:27;;;;;;;9.00;8.00;;;;;;;6.15;60.92;101564.14;1631504;86;21058;-80
2022/05/07 03:28:53;;;;;;;7.63;6.83;;;;;;;6.16;60.91;101569.72;1632841;86;21070;-80
2022/05/07 03:31:19;;;;;;;9.20;8.20;;;;;;;6.16;60.89;101565.45;1630810;86;21664;-78
2022/05/07 03:33:49;;;;;;;7.58;6.78;;;;;;;6.14;60.91;101572.27;1631646;87;21062;-79
2022/05/07 03:36:15;;;;;;;7.30;6.60;;;;;;;6.12;60.89;101570.09;1633682;86;21120;-79
2022/05/07 03:38:42;;;;;;;9.63;7.35;;;;;;;6.11;60.98;101573.49;1649095;84;314554;-78
2022/05/07 03:41:08;;;;;;;12.10;8.25;;;;;;;6.12;61.03;101571.78;1667212;83;21574;-78
2022/05/07 03:43:36;;;;;;;10.90;8.00;;;;;;;6.14;61.03;101573.97;1658089;85;21074;-78
2022/05/07 03:46:05;;;;;;;9.38;7.10;;;;;;;6.13;61.13;101567.97;1666034;85;22110;-79
2022/05/07 03:48:32;;;;;;;10.78;8.95;;;;;;;6.16;61.14;101574.44;1665640;83;20960;-79
2022/05/07 03:51:00;;;;;;;9.60;8.03;;;;;;;6.17;61.14;101574.88;1684140;85;20908;-80
2022/05/07 03:53:30;;;;;;;14.87;8.95;;;;;;;6.19;61.21;101570.64;1685801;84;21443;-79
2022/05/07 03:56:08;;;;;;;10.58;8.23;;;;;;;6.21;61.29;101575.38;1680708;83;20884;-79
2022/05/07 03:58:36;;;;;;;9.78;8.33;;;;;;;6.23;61.32;101572.84;1659435;85;21464;-79
2022/05/07 04:01:03;;;;;;;15.10;7.80;;;;;;;6.25;61.38;101573.70;1659544;85;20972;-80
2022/05/07 04:03:30;;;;;;;9.95;8.28;;;;;;;6.26;61.40;101571.58;1659560;85;20932;-80
2022/05/07 04:05:58;;;;;;;11.00;8.85;;;;;;;6.25;61.50;101565.58;1664430;83;20959;-79
2022/05/07 04:08:24;;;;;;;11.53;8.35;;;;;;;6.37;61.61;101565.34;1660278;83;21810;-79
2022/05/07 04:10:51;;;;;;;8.03;7.22;;;;;;;6.57;61.78;101568.67;1689089;84;20916;-78
2022/05/07 04:13:18;;;;;;;8.58;7.08;;;;;;;6.72;61.79;101565.89;1694531;84;20920;-80
2022/05/07 04:15:45;;;;;;;10.43;8.65;;;;;;;6.86;61.78;101569.50;1682658;84;20969;-80
2022/05/07 04:18:11;;;;;;;10.18;8.85;;;;;;;6.94;61.80;101566.20;1690007;83;20940;-80
2022/05/07 04:20:39;;;;;;;9.23;8.25;;;;;;;7.07;61.80;101572.80;1694612;84;20939;-82
2022/05/07 04:23:05;;;;;;;9.38;8.33;;;;;;;7.18;61.92;101574.67;1682844;83;21353;-80
2022/05/07 04:25:31;;;;;;;10.65;9.18;;;;;;;7.28;61.96;101576.49;1676357;83;20926;-78
2022/05/07 04:27:58;;;;;;;10.90;8.60;;;;;;;7.45;62.05;101580.98;1666585;85;21499;-78
2022/05/07 04:30:24;;;;;;;;;;;;;;;7.61;62.08;101577.75;1681244;83;21026;-78
2022/05/07 04:32:51;;;;;;;11.18;8.40;;;;;;;7.78;62.60;101579.23;1692856;83;20191;-79
2022/05/07 04:35:17;;;;;;;13.95;9.83;;;;;;;7.92;62.19;101575.92;1681235;84;21646;-80
2022/05/07 04:37:43;;;;;;;14.35;9.90;;;;;;;8.11;62.33;101583.41;1693438;83;21082;-82
2022/05/07 04:40:10;;;;;;;15.85;9.95;;;;;;;8.37;62.44;101587.95;1693518;84;21018;-79
2022/05/07 04:42:37;;;;;;;14.60;9.85;;;;;;;8.60;62.51;101586.42;1680351;83;21006;-78
2022/05/07 04:45:05;;;;;;;13.32;9.08;;;;;;;8.85;62.60;101586.14;1666550;84;20884;-78
2022/05/07 04:47:31;;;;;;;13.22;8.78;;;;;;;9.09;62.60;101585.44;1692830;83;21086;-80
2022/05/07 04:49:58;;;;;;;12.33;8.68;;;;;;;9.49;62.71;101586.47;1678301;83;21062;-81
2022/05/07 04:52:24;;;;;;;15.13;9.58;;;;;;;9.49;62.71;101586.47;1683646;84;21026;-79
2022/05/07 04:54:50;;;;;;;13.90;9.93;;;;;;;9.68;62.73;101589.98;1693423;83;21066;-80
2022/05/07 04:57:16;;;;;;;11.67;9.30;;;;;;;9.83;62.81;101590.03;1676284;84;21676;-80
2022/05/07 04:59:43;;;;;;;12.33;9.25;;;;;;;10.01;62.84;101592.63;1664378;84;20977;-80
2022/05/07 05:02:09;;;;;;;13.25;9.45;;;;;;;10.15;62.84;101588.35;1675657;84;21102;-80
2022/05/07 05:04:35;;;;;;;16.93;10.43;;;;;;;10.30;62.87;101591.42;1691908;83;20987;-80
2022/05/07 05:07:01;;;;;;;10.33;8.60;;;;;;;10.46;62.95;101590.97;1668843;84;21051;-81
2022/05/07 05:09:27;;;;;;;13.47;9.50;;;;;;;10.80;63.05;101582.33;1682245;84;21129;-82
2022/05/07 05:11:53;;;;;;;11.10;8.70;;;;;;;10.80;63.05;101582.33;1705167;82;21506;-80
2022/05/07 05:17:04;;;;;;;11.70;8.55;;;;;;;11.16;63.02;101581.80;1705993;81;21065;-77
2022/05/07 05:19:30;;;;;;;11.90;7.90;;;;;;;11.39;63.05;101582.58;1720155;82;20895;-77
2022/05/07 05:21:55;;;;;;;11.10;8.95;;;;;;;11.66;63.09;101580.28;1725507;81;21074;-77
2022/05/07 05:24:22;;;;;;;10.43;8.58;;;;;;;11.91;63.10;101581.91;1729589;81;21046;-77
2022/05/07 05:26:48;;;;;;;9.93;8.40;;;;;;;12.17;63.03;101586.03;1722402;81;21151;-77
2022/05/07 05:29:14;;;;;;;10.60;8.53;;;;;;;12.35;62.98;101589.79;1707172;81;20918;-77
2022/05/07 05:31:40;;;;;;;13.73;8.73;;;;;;;12.58;63.04;101589.14;1723469;82;21069;-77
2022/05/07 05:34:06;;;;;;;9.27;7.70;;;;;;;12.88;63.01;101591.89;1702410;84;21005;-76
2022/05/07 05:36:32;;;;;;;8.97;7.93;;;;;;;13.14;62.95;101588.14;1714798;81;21580;-76
2022/05/07 05:38:59;;;;;;;8.20;7.43;;;;;;;13.36;62.87;101593.98;1731378;82;20883;-77
2022/05/07 05:41:25;;;;;;;9.73;7.45;;;;;;;13.58;62.86;101588.48;1716449;81;21801;-77
2022/05/07 05:43:52;;;;;;;9.00;7.53;;;;;;;13.82;62.76;101583.84;1720201;82;20860;-76
2022/05/07 05:46:18;;;;;;;11.30;8.07;;;;;;;14.04;62.70;101581.33;1727376;81;20871;-77
2022/05/07 05:48:45;;;;;;;10.30;7.92;;;;;;;14.32;62.75;101586.97;1729415;81;21396;-77
2022/05/07 05:51:11;;;;;;;7.67;6.90;;;;;;;14.79;62.74;101580.11;1725016;81;20923;-77
2022/05/07 05:53:37;;;;;;;7.60;6.50;;;;;;;15.23;62.69;101583.16;1725983;81;20935;-78
2022/05/07 05:56:03;;;;;;;10.23;6.10;;;;;;;15.78;62.73;101580.72;1722680;81;21021;-78
2022/05/07 05:58:33;;;;;;;7.15;6.47;;;;;;;16.54;62.60;101582.36;1723553;81;20923;-79
2022/05/07 06:00:58;;;;;;;6.85;5.45;;;;;;;17.18;62.58;101584.55;1722854;81;20927;-79
2022/05/07 06:03:26;;;;;;;6.15;5.50;;;;;;;17.83;62.50;101587.02;1733799;81;20970;-79
2022/05/07 06:05:52;;;;;;;5.53;4.87;;;;;;;18.39;62.30;101581.73;1731375;82;20851;-79
2022/05/07 06:08:18;;;;;;;7.97;3.98;;;;;;;18.91;61.88;101583.04;1731270;82;20982;-79
2022/05/07 06:10:52;;;;;;;5.70;4.30;;;;;;;19.41;61.72;101579.88;1696661;81;21446;-84
2022/05/07 06:13:19;;;;;;;4.05;3.47;;;;;;;19.80;61.34;101585.39;1696653;84;20884;-85
2022/05/07 06:15:51;;;;;;;4.55;3.33;;;;;;;19.88;60.83;101588.57;1691269;82;20931;-84
2022/05/07 06:18:15;;;;;;;4.62;3.87;;;;;;;19.92;60.83;101584.91;1699504;83;20946;-86
2022/05/07 06:20:41;;;;;;;5.50;3.85;;;;;;;20.01;60.66;101592.88;1704041;83;21247;-86
2022/05/07 06:23:07;;;;;;;6.83;4.57;;;;;;;20.17;60.60;101588.73;1696058;83;20971;-86
2022/05/07 06:28:17;;;;;;;6.12;4.17;;;;;;;20.62;60.30;101585.14;1694489;82;20979;-86
2022/05/07 06:30:43;;;;;;;5.97;4.37;;;;;;;21.02;60.04;101581.62;1701819;81;21558;-86
2022/05/07 06:33:09;;;;;;;5.00;4.35;;;;;;;21.25;59.79;101593.33;1699786;82;20944;-86
2022/05/07 06:35:36;;;;;;;5.33;3.90;;;;;;;21.47;59.56;101589.23;1695696;83;21058;-85
2022/05/07 06:38:01;;;;;;;5.00;4.50;;;;;;;21.52;59.28;101592.97;1696158;83;21179;-86
2022/05/07 06:40:27;;;;;;;4.92;4.53;;;;;;;21.52;59.11;101591.66;1696144;82;21110;-86
2022/05/07 06:43:01;;;;;;;5.20;4.45;;;;;;;21.50;58.79;101592.19;1697667;83;21398;-85
2022/05/07 06:45:31;;;;;;;5.33;4.83;;;;;;;21.47;58.78;101586.59;1697774;83;20975;-86
2022/05/07 06:47:57;;;;;;;4.83;4.33;;;;;;;21.56;58.67;101589.27;1695370;82;21147;-87
2022/05/07 06:50:23;;;;;;;4.37;3.97;;;;;;;21.75;58.50;101585.72;1703471;83;21075;-87
2022/05/07 06:52:49;;;;;;;5.27;4.77;;;;;;;22.10;58.27;101595.03;1704446;82;21062;-87
2022/05/07 06:55:17;;;;;;;5.27;4.77;;;;;;;22.27;57.80;101593.75;1703739;83;21607;-86
2022/05/07 06:57:44;;;;;;;7.42;4.67;;;;;;;22.39;57.39;101590.95;1675673;84;21115;-86
2022/05/07 07:00:14;;;;;;;5.12;4.47;;;;;;;22.46;57.23;101592.35;1687832;83;20955;-86
2022/05/07 07:02:42;;;;;;;5.42;4.15;;;;;;;22.52;57.10;101592.51;1690104;82;21054;-86
2022/05/07 07:05:09;;;;;;;4.30;3.90;;;;;;;22.64;56.97;101594.53;1704836;83;21078;-84
2022/05/07 07:07:35;;;;;;;4.10;3.67;;;;;;;22.79;56.59;101591.14;1702929;82;21407;-84
2022/05/07 07:10:01;;;;;;;4.27;3.50;;;;;;;22.73;56.22;101596.23;1671269;83;20963;-84
2022/05/07 07:12:29;;;;;;;3.67;3.17;;;;;;;22.71;55.88;101588.02;1648212;85;21086;-85
2022/05/07 07:14:57;;;;;;;7.67;3.20;;;;;;;22.77;55.74;101595.61;1681342;85;21555;-80
2022/05/07 07:17:25;;;;;;;5.47;3.93;;;;;;;23.04;55.71;101599.94;1688241;81;21019;-80
2022/05/07 07:19:51;;;;;;;4.42;3.33;;;;;;;23.25;55.28;101596.16;1680987;83;21096;-80
2022/05/07 07:22:19;;;;;;;3.72;3.40;;;;;;;23.41;55.14;101600.13;1678495;81;21048;-79
2022/05/07 07:24:45;;;;;;;5.20;3.33;;;;;;;23.63;54.89;101596.74;1671367;83;20987;-80
2022/05/07 07:27:11;;;;;;;3.95;3.55;;;;;;;23.84;54.58;101596.50;1704616;81;21072;-80
2022/05/07 07:29:37;;;;;;;4.03;3.62;;;;;;;24.03;54.43;101593.17;1710101;81;21125;-80
2022/05/07 07:32:04;;;;;;;3.70;3.40;;;;;;;24.22;54.38;101595.63;1684565;82;21371;-80
2022/05/07 07:34:30;;;;;;;4.05;3.40;;;;;;;24.65;54.53;101590.02;1687354;81;21088;-80
2022/05/07 07:36:56;;;;;;;4.17;3.42;;;;;;;25.22;54.49;101596.23;1685006;83;21066;-80
2022/05/07 07:39:29;;;;;;;4.17;3.10;;;;;;;25.92;53.94;101594.45;1683174;83;21534;-80
2022/05/07 07:41:55;;;;;;;6.37;2.93;;;;;;;26.43;53.06;101582.69;1685466;84;20936;-80
2022/05/07 07:44:21;;;;;;;5.20;3.00;;;;;;;26.73;52.01;101578.41;1688294;81;21054;-80
2022/05/07 07:49:32;;;;;;;4.45;3.80;;;;;;;26.26;51.28;101579.80;1687544;81;21584;-80
2022/05/07 07:51:58;;;;;;;3.93;3.33;;;;;;;26.08;50.95;101571.73;1683739;82;21121;-80
2022/05/07 07:54:24;;;;;;;5.93;3.37;;;;;;;25.85;50.72;101575.91;1673718;83;21704;-80
2022/05/07 07:56:50;;;;;;;6.50;3.00;;;;;;;25.48;50.65;101582.67;1669595;83;21123;-80
2022/05/07 07:59:16;;;;;;;3.80;2.90;;;;;;;25.21;50.39;101579.13;1679955;83;20912;-80
2022/05/07 08:01:42;;;;;;;4.25;3.30;;;;;;;24.95;50.15;101579.39;1685013;83;21062;-80
2022/05/07 08:04:15;;;;;;;5.03;3.42;;;;;;;24.14;49.72;101576.24;1689869;82;21088;-79
2022/05/07 08:06:41;;;;;;;7.58;2.67;;;;;;;24.14;49.72;101576.24;1714145;81;36145;-79
2022/05/07 08:11:59;;;;;;;4.28;2.47;;;;;;;23.68;49.13;101571.41;1685129;85;21134;-79
2022/05/07 08:14:24;;;;;;;8.25;3.12;;;;;;;23.58;48.94;101569.73;1685367;84;21138;-80
2022/05/07 08:16:50;;;;;;;6.47;3.00;;;;;;;23.50;48.17;101564.45;1677595;84;21632;-80
2022/05/07 08:19:16;;;;;;;4.73;3.67;;;;;;;23.42;48.32;101562.23;1683588;83;21127;-80
2022/05/07 08:21:42;;;;;;;5.10;3.12;;;;;;;23.49;47.98;101565.39;1685298;82;21083;-80
2022/05/07 08:24:09;;;;;;;4.12;2.70;;;;;;;23.57;47.99;101558.79;1684869;83;21044;-80
2022/05/07 08:26:36;;;;;;;3.40;3.10;;;;;;;23.77;47.88;101561.65;1674970;84;21126;-80
2022/05/07 08:29:02;;;;;;;3.00;2.70;;;;;;;23.91;47.61;101565.69;1662105;85;21146;-80
2022/05/07 08:31:29;;;;;;;3.17;2.87;;;;;;;23.97;47.45;101567.95;1666113;84;20975;-80
2022/05/07 08:33:55;;;;;;;3.30;3.00;;;;;;;23.94;47.09;101566.80;1686604;83;21040;-80
2022/05/07 08:36:22;;;;;;;4.10;3.22;;;;;;;23.81;46.98;101564.50;1680975;83;21078;-80
2022/05/07 08:38:48;;;;;;;5.53;2.98;;;;;;;23.73;46.82;101561.44;1683191;83;21063;-80
2022/05/07 08:41:18;;;;;;;3.83;3.10;;;;;;;23.70;46.86;101565.56;1685135;84;21070;-80
2022/05/07 08:43:44;;;;;;;4.30;2.87;;;;;;;23.79;46.66;101561.56;1673240;84;21079;-80
2022/05/07 08:46:16;;;;;;;2.50;2.30;;;;;;;23.87;46.49;101564.16;1667968;85;21675;-80
2022/05/07 08:48:46;;;;;;;3.40;3.10;;;;;;;24.07;45.91;101555.07;1685525;83;21099;-80
2022/05/07 08:51:15;;;;;;;4.72;2.98;;;;;;;24.03;45.59;101558.36;1685124;84;21059;-80
2022/05/07 08:53:43;;;;;;;2.58;2.37;;;;;;;24.03;45.59;101558.36;1681146;83;21315;-80
2022/05/07 08:56:10;;;;;;;3.22;2.92;;;;;;;24.05;45.77;101553.84;1675533;83;20898;-80
2022/05/07 08:58:37;;;;;;;3.72;2.72;;;;;;;24.10;45.72;101540.36;1679606;83;20942;-80
2022/05/07 09:01:03;;;;;;;;;;;;;;;24.12;45.32;101549.52;1682965;83;20908;-80
2022/05/07 09:03:45;;;;;;;4.90;2.92;;;;;;;23.93;44.91;101559.81;1686975;84;20085;-79
2022/05/07 09:06:22;;;;;;;4.62;2.90;;;;;;;23.77;45.19;101557.69;1684374;83;20940;-79
2022/05/07 09:08:49;;;;;;;2.72;2.52;;;;;;;23.67;45.08;101554.70;1687945;83;20957;-79
2022/05/07 09:11:17;;;;;;;;;;;;;;;23.58;44.98;101558.32;1717310;82;20916;-79
2022/05/07 09:13:43;;;;;;;4.15;2.98;;;;;;;23.54;44.52;101552.83;1732024;81;20104;-79
2022/05/07 09:16:09;;;;;;;4.72;2.87;;;;;;;23.45;44.61;101556.79;1729133;81;20915;-79
2022/05/07 09:18:36;;;;;;;5.58;2.72;;;;;;;23.19;44.34;101559.55;1725634;81;21387;-79
2022/05/07 09:21:26;;;;;;;2.43;2.07;;;;;;;23.03;44.21;101561.30;1722703;81;20943;-79
2022/05/07 09:24:05;;;;;;;4.55;3.08;;;;;;;22.82;44.05;101555.39;1714118;81;20879;-80
2022/05/07 09:26:40;;;;;;;4.30;2.77;;;;;;;22.65;43.98;101554.05;1722706;81;20922;-79
2022/05/07 09:29:12;;;;;;;5.55;2.72;;;;;;;22.56;43.69;101547.47;1724990;81;20954;-78
2022/05/07 09:31:41;;;;;;;4.05;2.75;;;;;;;22.50;43.76;101547.78;1726796;81;20954;-80
2022/05/07 09:37:17;;;;;;;6.83;2.25;;;;;;;22.55;43.57;101547.08;1725407;81;20887;-80
2022/05/07 09:39:51;;;;;;;4.25;2.27;;;;;;;22.49;43.47;101544.75;1727231;81;20900;-84
2022/05/07 09:42:20;;;;;;;3.52;2.58;;;;;;;22.55;43.36;101543.13;1735527;81;21518;-82
2022/05/07 09:44:47;;;;;;;4.00;2.98;;;;;;;22.55;43.13;101543.59;1730456;81;20922;-83
2022/05/07 09:47:14;;;;;;;4.80;2.50;;;;;;;22.51;43.07;101538.08;1719650;82;20978;-82
2022/05/07 09:52:29;;;;;;;2.85;2.65;;;;;;;22.34;42.76;101538.50;1721693;82;20135;-82
2022/05/07 09:57:42;;;;;;;4.95;2.58;;;;;;;22.29;42.92;101535.71;1724834;82;20982;-81
2022/05/07 10:00:13;;;;;;;3.37;2.15;;;;;;;22.35;42.70;101530.98;1730626;82;21512;-81
2022/05/07 10:03:16;;;;;;;2.90;2.22;;;;;;;22.37;42.65;101530.41;1732456;82;21506;-80
2022/05/07 10:06:04;;;;;;;3.98;2.27;;;;;;;22.40;42.66;101528.09;1701425;82;21593;-81
2022/05/07 10:09:06;;;;;;;2.62;2.42;;;;;;;22.41;42.52;101524.05;1724803;81;21554;-80
2022/05/07 10:11:34;;;;;;;3.45;2.30;;;;;;;22.42;42.52;101523.59;1697341;81;21075;-80
2022/05/07 10:14:00;;;;;;;3.72;2.87;;;;;;;22.45;42.50;101523.44;1680533;83;20983;-80
2022/05/07 10:16:31;;;;;;;5.20;2.80;;;;;;;22.53;42.47;101525.22;1667328;83;21607;-80
2022/05/07 10:19:12;;;;;;;2.72;2.52;;;;;;;22.62;42.37;101518.62;1684753;83;21685;-80
2022/05/07 10:21:38;;;;;;;2.87;2.25;;;;;;;22.61;42.29;101519.08;1682031;85;21039;-80
2022/05/07 10:24:06;;;;;;;2.80;2.60;;;;;;;22.53;42.21;101513.35;1669489;85;21072;-81
2022/05/07 10:26:41;;;;;;;2.75;2.50;;;;;;;22.41;42.03;101520.09;1684457;84;21115;-80
2022/05/07 10:29:23;;;;;;;3.15;2.40;;;;;;;22.25;42.08;101522.30;1678783;83;21515;-80
2022/05/07 10:32:01;;;;;;;4.15;2.50;;;;;;;22.16;42.10;101523.61;1684595;83;21394;-80
2022/05/07 10:34:27;;;;;;;3.40;2.67;;;;;;;22.11;42.10;101512.45;1681367;83;21634;-80
2022/05/07 10:37:05;;;;;;;2.45;2.25;;;;;;;21.99;42.00;101516.50;1682575;85;21614;-80
2022/05/07 10:39:32;;;;;;;6.17;2.70;;;;;;;21.93;42.03;101514.63;1685336;84;21131;-80
2022/05/07 10:42:16;;;;;;;2.80;2.35;;;;;;;21.98;42.04;101509.53;1675991;83;21087;-80
2022/05/07 10:44:43;;;;;;;3.52;2.40;;;;;;;22.13;42.02;101505.32;1685024;83;21550;-80
2022/05/07 10:47:15;;;;;;;3.10;2.40;;;;;;;22.27;41.95;101500.68;1685524;84;21887;-80
2022/05/07 10:50:14;;;;;;;4.78;2.05;;;;;;;22.30;41.81;101500.52;1671050;83;20932;-80
2022/05/07 10:52:42;;;;;;;3.45;2.08;;;;;;;22.18;41.74;101495.41;1682318;83;20936;-80
2022/05/07 10:55:18;;;;;;;3.90;2.07;;;;;;;22.04;41.70;101500.05;1679371;83;20955;-79
2022/05/07 10:57:47;;;;;;;3.85;1.85;;;;;;;21.95;41.63;101500.47;1676021;83;20908;-80
2022/05/07 11:00:18;;;;;;;5.17;1.80;;;;;;;21.85;41.63;101502.30;1667920;85;20951;-80
2022/05/07 11:02:47;;;;;;;3.35;1.70;;;;;;;21.77;41.62;101507.51;1665249;84;20908;-79
2022/05/07 11:05:13;;;;;;;4.83;2.30;;;;;;;21.68;41.54;101497.89;1684355;83;20877;-80
2022/05/07 11:07:40;;;;;;;3.45;1.57;;;;;;;21.62;41.56;101502.13;1677341;82;21010;-80
2022/05/07 11:10:08;;;;;;;2.10;1.87;;;;;;;21.58;41.57;101500.10;1681422;83;21527;-81
2022/05/07 11:12:39;;;;;;;1.85;1.75;;;;;;;21.55;41.50;101496.77;1666160;84;21548;-79
2022/05/07 11:15:07;;;;;;;1.90;1.65;;;;;;;21.49;41.55;101497.91;1690735;83;20899;-80
2022/05/07 11:17:40;;;;;;;2.98;1.95;;;;;;;21.51;41.58;101500.47;1694971;83;20912;-79
2022/05/07 11:20:05;;;;;;;3.98;2.37;;;;;;;21.52;41.60;101498.22;1695396;83;20912;-80
2022/05/07 11:22:32;;;;;;;3.65;2.15;;;;;;;21.57;41.56;101493.13;1693627;83;20947;-80
2022/05/07 11:25:00;;;;;;;4.67;2.33;;;;;;;21.64;41.57;101490.59;1694170;83;21519;-80
2022/05/07 11:27:33;;;;;;;2.45;2.25;;;;;;;21.73;41.58;101490.16;1692324;82;20912;-79
2022/05/07 11:30:01;;;;;;;2.22;2.00;;;;;;;21.79;41.57;101482.42;1694695;82;21393;-79
2022/05/07 11:32:42;;;;;;;2.20;2.00;;;;;;;21.87;41.55;101482.87;1689962;83;21110;-80
2022/05/07 11:35:10;;;;;;;3.37;2.40;;;;;;;21.93;41.50;101475.98;1686878;82;21510;-80
2022/05/07 11:37:43;;;;;;;2.25;2.05;;;;;;;22.00;41.57;101481.34;1686999;83;21062;-80
2022/05/07 11:40:12;;;;;;;2.60;2.27;;;;;;;22.03;41.51;101479.91;1694028;84;21025;-80
2022/05/07 11:42:47;;;;;;;2.30;2.10;;;;;;;22.12;41.50;101476.81;1673321;84;21550;-80
2022/05/07 11:45:27;;;;;;;3.15;2.00;;;;;;;22.23;41.43;101469.68;1693819;82;21309;-80
2022/05/07 11:48:18;;;;;;;4.87;2.33;;;;;;;22.29;41.34;101464.09;1691732;83;21572;-80
2022/05/07 11:50:55;;;;;;;1.85;1.75;;;;;;;22.37;41.34;101463.67;1689710;82;21500;-80
2022/05/07 11:53:26;;;;;;;5.20;2.05;;;;;;;22.52;41.36;101460.71;1698483;81;21090;-80
2022/05/07 11:56:09;;;;;;;;;;;;;;;22.66;41.29;101463.48;1695480;82;20968;-82
2022/05/07 11:58:45;;;;;;;5.42;2.05;;;;;;;22.75;41.09;101460.36;1686375;83;20664;-80